sensor_id;sensor_type;location;lat;lon;timestamp;P1;durP1;ratioP1;P2;durP2;ratioP2
46006;SDS011;31738;50.188;8.524;2022-10-16T00:02:33;3.88;;;2.72;;
46006;SDS011;31738;50.188;8.524;2022-10-16T00:05:19;8.10;;;2.50;;
46006;SDS011;31738;50.188;8.524;2022-10-16T00:08:00;7.13;;;2.70;;
46006;SDS011;31738;50.188;8.524;2022-10-16T00:10:29;5.93;;;2.63;;
46006;SDS011;31738;50.188;8.524;2022-10-16T00:13:00;9.30;;;3.30;;
46006;SDS011;31738;50.188;8.524;2022-10-16T00:15:37;5.75;;;2.55;;
46006;SDS011;31738;50.188;8.524;2022-10-16T00:18:07;4.10;;;3.10;;
46006;SDS011;31738;50.188;8.524;2022-10-16T00:20:41;5.18;;;3.05;;
46006;SDS011;31738;50.188;8.524;2022-10-16T00:23:31;7.00;;;3.38;;
46006;SDS011;31738;50.188;8.524;2022-10-16T00:26:07;4.72;;;3.03;;
46006;SDS011;31738;50.188;8.524;2022-10-16T00:28:44;5.05;;;3.35;;
46006;SDS011;31738;50.188;8.524;2022-10-16T00:31:28;5.53;;;3.63;;
46006;SDS011;31738;50.188;8.524;2022-10-16T00:33:56;6.05;;;3.67;;
46006;SDS011;31738;50.188;8.524;2022-10-16T00:36:27;10.73;;;4.18;;
46006;SDS011;31738;50.188;8.524;2022-10-16T00:39:13;6.53;;;3.42;;
46006;SDS011;31738;50.188;8.524;2022-10-16T00:41:41;8.05;;;3.90;;
46006;SDS011;31738;50.188;8.524;2022-10-16T00:47:19;6.47;;;3.47;;
46006;SDS011;31738;50.188;8.524;2022-10-16T00:50:13;7.53;;;3.88;;
46006;SDS011;31738;50.188;8.524;2022-10-16T00:52:56;7.47;;;3.53;;
46006;SDS011;31738;50.188;8.524;2022-10-16T00:55:49;6.68;;;3.55;;
46006;SDS011;31738;50.188;8.524;2022-10-16T00:58:33;6.88;;;3.60;;
46006;SDS011;31738;50.188;8.524;2022-10-16T01:01:05;5.25;;;3.17;;
46006;SDS011;31738;50.188;8.524;2022-10-16T01:03:44;8.88;;;3.80;;
46006;SDS011;31738;50.188;8.524;2022-10-16T01:12:12;6.38;;;3.65;;
46006;SDS011;31738;50.188;8.524;2022-10-16T01:17:35;6.50;;;4.07;;
46006;SDS011;31738;50.188;8.524;2022-10-16T01:20:22;9.52;;;4.20;;
46006;SDS011;31738;50.188;8.524;2022-10-16T01:26:02;9.60;;;4.72;;
46006;SDS011;31738;50.188;8.524;2022-10-16T01:29:04;8.20;;;4.60;;
46006;SDS011;31738;50.188;8.524;2022-10-16T01:31:56;10.73;;;4.75;;
46006;SDS011;31738;50.188;8.524;2022-10-16T01:34:32;8.55;;;5.47;;
46006;SDS011;31738;50.188;8.524;2022-10-16T01:37:07;10.15;;;5.10;;
46006;SDS011;31738;50.188;8.524;2022-10-16T01:39:54;16.02;;;6.43;;
46006;SDS011;31738;50.188;8.524;2022-10-16T01:42:29;10.60;;;6.35;;
46006;SDS011;31738;50.188;8.524;2022-10-16T01:45:00;14.77;;;7.65;;
46006;SDS011;31738;50.188;8.524;2022-10-16T01:47:34;12.68;;;7.30;;
46006;SDS011;31738;50.188;8.524;2022-10-16T01:50:11;13.93;;;7.47;;
46006;SDS011;31738;50.188;8.524;2022-10-16T01:52:43;14.30;;;6.90;;
46006;SDS011;31738;50.188;8.524;2022-10-16T01:55:14;19.08;;;7.38;;
46006;SDS011;31738;50.188;8.524;2022-10-16T01:57:48;12.07;;;7.15;;
46006;SDS011;31738;50.188;8.524;2022-10-16T02:00:23;16.63;;;7.68;;
46006;SDS011;31738;50.188;8.524;2022-10-16T02:02:56;13.98;;;7.95;;
46006;SDS011;31738;50.188;8.524;2022-10-16T02:07:57;16.08;;;8.00;;
46006;SDS011;31738;50.188;8.524;2022-10-16T02:10:28;18.52;;;8.70;;
46006;SDS011;31738;50.188;8.524;2022-10-16T02:13:10;17.45;;;8.10;;
46006;SDS011;31738;50.188;8.524;2022-10-16T02:15:50;12.80;;;7.50;;
46006;SDS011;31738;50.188;8.524;2022-10-16T02:18:20;17.02;;;8.48;;
46006;SDS011;31738;50.188;8.524;2022-10-16T02:21:01;21.15;;;8.45;;
46006;SDS011;31738;50.188;8.524;2022-10-16T02:23:39;19.15;;;8.70;;
46006;SDS011;31738;50.188;8.524;2022-10-16T02:26:13;18.25;;;8.35;;
46006;SDS011;31738;50.188;8.524;2022-10-16T02:28:46;17.42;;;8.02;;
46006;SDS011;31738;50.188;8.524;2022-10-16T02:31:19;18.88;;;8.98;;
46006;SDS011;31738;50.188;8.524;2022-10-16T02:33:51;17.90;;;8.13;;
46006;SDS011;31738;50.188;8.524;2022-10-16T02:36:20;18.67;;;7.93;;
46006;SDS011;31738;50.188;8.524;2022-10-16T02:38:46;22.30;;;9.10;;
46006;SDS011;31738;50.188;8.524;2022-10-16T02:41:12;15.82;;;8.55;;
46006;SDS011;31738;50.188;8.524;2022-10-16T02:43:45;18.60;;;8.82;;
46006;SDS011;31738;50.188;8.524;2022-10-16T02:46:11;16.70;;;8.75;;
46006;SDS011;31738;50.188;8.524;2022-10-16T02:48:36;17.80;;;8.93;;
46006;SDS011;31738;50.188;8.524;2022-10-16T02:51:03;19.42;;;8.95;;
46006;SDS011;31738;50.188;8.524;2022-10-16T02:53:28;22.90;;;8.77;;
46006;SDS011;31738;50.188;8.524;2022-10-16T02:55:54;19.85;;;9.15;;
46006;SDS011;31738;50.188;8.524;2022-10-16T02:58:19;14.82;;;8.10;;
46006;SDS011;31738;50.188;8.524;2022-10-16T03:00:45;16.35;;;9.27;;
46006;SDS011;31738;50.188;8.524;2022-10-16T03:03:12;16.95;;;8.85;;
46006;SDS011;31738;50.188;8.524;2022-10-16T03:05:38;17.90;;;8.70;;
46006;SDS011;31738;50.188;8.524;2022-10-16T03:08:10;18.88;;;9.45;;
46006;SDS011;31738;50.188;8.524;2022-10-16T03:10:41;18.25;;;8.32;;
46006;SDS011;31738;50.188;8.524;2022-10-16T03:13:12;19.58;;;9.35;;
46006;SDS011;31738;50.188;8.524;2022-10-16T03:15:43;17.95;;;9.07;;
46006;SDS011;31738;50.188;8.524;2022-10-16T03:18:17;18.05;;;8.15;;
46006;SDS011;31738;50.188;8.524;2022-10-16T03:20:44;18.15;;;9.15;;
46006;SDS011;31738;50.188;8.524;2022-10-16T03:23:13;21.00;;;9.55;;
46006;SDS011;31738;50.188;8.524;2022-10-16T03:25:48;19.98;;;9.45;;
46006;SDS011;31738;50.188;8.524;2022-10-16T03:28:22;19.13;;;9.65;;
46006;SDS011;31738;50.188;8.524;2022-10-16T03:30:53;27.05;;;11.10;;
46006;SDS011;31738;50.188;8.524;2022-10-16T03:33:29;37.95;;;10.95;;
46006;SDS011;31738;50.188;8.524;2022-10-16T03:36:00;21.88;;;10.57;;
46006;SDS011;31738;50.188;8.524;2022-10-16T03:38:30;24.15;;;10.77;;
46006;SDS011;31738;50.188;8.524;2022-10-16T03:40:56;22.90;;;10.98;;
46006;SDS011;31738;50.188;8.524;2022-10-16T03:43:22;18.95;;;9.95;;
46006;SDS011;31738;50.188;8.524;2022-10-16T03:45:49;24.80;;;10.05;;
46006;SDS011;31738;50.188;8.524;2022-10-16T03:48:19;21.05;;;9.75;;
46006;SDS011;31738;50.188;8.524;2022-10-16T03:50:58;20.80;;;9.02;;
46006;SDS011;31738;50.188;8.524;2022-10-16T03:53:33;19.98;;;9.27;;
46006;SDS011;31738;50.188;8.524;2022-10-16T03:56:04;22.70;;;9.77;;
46006;SDS011;31738;50.188;8.524;2022-10-16T03:58:35;22.55;;;9.60;;
46006;SDS011;31738;50.188;8.524;2022-10-16T04:01:01;22.63;;;10.35;;
46006;SDS011;31738;50.188;8.524;2022-10-16T04:03:38;21.38;;;9.93;;
46006;SDS011;31738;50.188;8.524;2022-10-16T04:06:07;21.85;;;9.63;;
46006;SDS011;31738;50.188;8.524;2022-10-16T04:08:41;19.27;;;10.13;;
46006;SDS011;31738;50.188;8.524;2022-10-16T04:11:15;21.35;;;10.23;;
46006;SDS011;31738;50.188;8.524;2022-10-16T04:13:52;21.60;;;9.75;;
46006;SDS011;31738;50.188;8.524;2022-10-16T04:16:18;19.90;;;9.65;;
46006;SDS011;31738;50.188;8.524;2022-10-16T04:18:44;19.98;;;9.98;;
46006;SDS011;31738;50.188;8.524;2022-10-16T04:21:15;18.25;;;9.27;;
46006;SDS011;31738;50.188;8.524;2022-10-16T04:23:47;15.45;;;8.13;;
46006;SDS011;31738;50.188;8.524;2022-10-16T04:26:14;18.52;;;9.13;;
46006;SDS011;31738;50.188;8.524;2022-10-16T04:28:51;17.70;;;8.57;;
46006;SDS011;31738;50.188;8.524;2022-10-16T04:31:20;18.10;;;8.77;;
46006;SDS011;31738;50.188;8.524;2022-10-16T04:34:00;18.77;;;9.02;;
46006;SDS011;31738;50.188;8.524;2022-10-16T04:36:31;16.73;;;8.75;;
46006;SDS011;31738;50.188;8.524;2022-10-16T04:39:00;19.20;;;9.00;;
46006;SDS011;31738;50.188;8.524;2022-10-16T04:41:26;18.83;;;8.60;;
46006;SDS011;31738;50.188;8.524;2022-10-16T04:43:57;15.35;;;8.23;;
46006;SDS011;31738;50.188;8.524;2022-10-16T04:46:36;12.98;;;8.00;;
46006;SDS011;31738;50.188;8.524;2022-10-16T04:49:24;17.23;;;9.02;;
46006;SDS011;31738;50.188;8.524;2022-10-16T04:52:05;22.25;;;8.85;;
46006;SDS011;31738;50.188;8.524;2022-10-16T04:54:40;15.85;;;9.35;;
46006;SDS011;31738;50.188;8.524;2022-10-16T04:57:10;20.83;;;8.60;;
46006;SDS011;31738;50.188;8.524;2022-10-16T04:59:44;17.27;;;9.70;;
46006;SDS011;31738;50.188;8.524;2022-10-16T05:02:21;18.58;;;8.93;;
46006;SDS011;31738;50.188;8.524;2022-10-16T05:04:49;37.10;;;11.43;;
46006;SDS011;31738;50.188;8.524;2022-10-16T05:07:18;25.90;;;11.02;;
46006;SDS011;31738;50.188;8.524;2022-10-16T05:09:48;65.90;;;11.93;;
46006;SDS011;31738;50.188;8.524;2022-10-16T05:12:29;28.48;;;10.88;;
46006;SDS011;31738;50.188;8.524;2022-10-16T05:15:02;17.60;;;10.27;;
46006;SDS011;31738;50.188;8.524;2022-10-16T05:17:37;130.30;;;13.77;;
46006;SDS011;31738;50.188;8.524;2022-10-16T05:20:09;64.68;;;11.63;;
46006;SDS011;31738;50.188;8.524;2022-10-16T05:22:34;68.00;;;12.43;;
46006;SDS011;31738;50.188;8.524;2022-10-16T05:25:11;31.00;;;10.52;;
46006;SDS011;31738;50.188;8.524;2022-10-16T05:27:39;27.83;;;11.52;;
46006;SDS011;31738;50.188;8.524;2022-10-16T05:30:05;25.23;;;11.43;;
46006;SDS011;31738;50.188;8.524;2022-10-16T05:32:48;20.77;;;11.60;;
46006;SDS011;31738;50.188;8.524;2022-10-16T05:35:14;25.08;;;11.77;;
46006;SDS011;31738;50.188;8.524;2022-10-16T05:37:46;18.63;;;10.48;;
46006;SDS011;31738;50.188;8.524;2022-10-16T05:40:16;92.55;;;13.43;;
46006;SDS011;31738;50.188;8.524;2022-10-16T05:42:42;22.10;;;11.38;;
46006;SDS011;31738;50.188;8.524;2022-10-16T05:45:19;23.02;;;12.07;;
46006;SDS011;31738;50.188;8.524;2022-10-16T05:47:56;123.15;;;13.73;;
46006;SDS011;31738;50.188;8.524;2022-10-16T05:50:25;28.05;;;12.07;;
46006;SDS011;31738;50.188;8.524;2022-10-16T05:52:55;33.70;;;11.82;;
46006;SDS011;31738;50.188;8.524;2022-10-16T05:55:25;26.92;;;11.50;;
46006;SDS011;31738;50.188;8.524;2022-10-16T05:57:53;24.05;;;11.82;;
46006;SDS011;31738;50.188;8.524;2022-10-16T06:00:58;25.17;;;11.90;;
46006;SDS011;31738;50.188;8.524;2022-10-16T06:03:35;24.70;;;11.10;;
46006;SDS011;31738;50.188;8.524;2022-10-16T06:06:11;23.40;;;11.63;;
46006;SDS011;31738;50.188;8.524;2022-10-16T06:08:44;25.65;;;11.50;;
46006;SDS011;31738;50.188;8.524;2022-10-16T06:11:21;26.52;;;11.82;;
46006;SDS011;31738;50.188;8.524;2022-10-16T06:13:53;23.08;;;10.95;;
46006;SDS011;31738;50.188;8.524;2022-10-16T06:16:24;26.65;;;11.35;;
46006;SDS011;31738;50.188;8.524;2022-10-16T06:18:57;19.75;;;10.00;;
46006;SDS011;31738;50.188;8.524;2022-10-16T06:21:31;20.48;;;10.93;;
46006;SDS011;31738;50.188;8.524;2022-10-16T06:24:00;22.02;;;10.90;;
46006;SDS011;31738;50.188;8.524;2022-10-16T06:26:36;22.15;;;10.25;;
46006;SDS011;31738;50.188;8.524;2022-10-16T06:29:07;20.15;;;10.07;;
46006;SDS011;31738;50.188;8.524;2022-10-16T06:31:36;23.98;;;11.13;;
46006;SDS011;31738;50.188;8.524;2022-10-16T06:34:04;21.17;;;10.05;;
46006;SDS011;31738;50.188;8.524;2022-10-16T06:36:34;20.73;;;10.43;;
46006;SDS011;31738;50.188;8.524;2022-10-16T06:39:03;20.17;;;9.38;;
46006;SDS011;31738;50.188;8.524;2022-10-16T06:41:35;17.23;;;8.43;;
46006;SDS011;31738;50.188;8.524;2022-10-16T06:44:14;14.95;;;8.48;;
46006;SDS011;31738;50.188;8.524;2022-10-16T06:46:40;18.63;;;8.50;;
46006;SDS011;31738;50.188;8.524;2022-10-16T06:49:12;19.98;;;8.88;;
46006;SDS011;31738;50.188;8.524;2022-10-16T06:51:58;17.02;;;9.20;;
46006;SDS011;31738;50.188;8.524;2022-10-16T06:54:37;15.18;;;8.25;;
46006;SDS011;31738;50.188;8.524;2022-10-16T06:57:10;14.18;;;7.60;;
46006;SDS011;31738;50.188;8.524;2022-10-16T06:59:38;13.80;;;7.82;;
46006;SDS011;31738;50.188;8.524;2022-10-16T07:02:10;12.32;;;7.70;;
46006;SDS011;31738;50.188;8.524;2022-10-16T07:04:52;14.20;;;7.15;;
46006;SDS011;31738;50.188;8.524;2022-10-16T07:07:37;13.80;;;6.82;;
46006;SDS011;31738;50.188;8.524;2022-10-16T07:10:09;15.05;;;6.90;;
46006;SDS011;31738;50.188;8.524;2022-10-16T07:12:37;13.82;;;7.03;;
46006;SDS011;31738;50.188;8.524;2022-10-16T07:15:07;13.07;;;6.68;;
46006;SDS011;31738;50.188;8.524;2022-10-16T07:17:38;15.48;;;7.03;;
46006;SDS011;31738;50.188;8.524;2022-10-16T07:20:07;10.73;;;6.80;;
46006;SDS011;31738;50.188;8.524;2022-10-16T07:22:36;9.30;;;5.90;;
46006;SDS011;31738;50.188;8.524;2022-10-16T07:25:06;10.15;;;6.47;;
46006;SDS011;31738;50.188;8.524;2022-10-16T07:27:38;9.25;;;6.40;;
46006;SDS011;31738;50.188;8.524;2022-10-16T07:30:04;11.48;;;6.22;;
46006;SDS011;31738;50.188;8.524;2022-10-16T07:32:38;9.07;;;6.20;;
46006;SDS011;31738;50.188;8.524;2022-10-16T07:35:07;10.95;;;6.47;;
46006;SDS011;31738;50.188;8.524;2022-10-16T07:37:44;9.65;;;6.07;;
46006;SDS011;31738;50.188;8.524;2022-10-16T07:40:11;11.05;;;6.18;;
46006;SDS011;31738;50.188;8.524;2022-10-16T07:42:40;10.55;;;6.10;;
46006;SDS011;31738;50.188;8.524;2022-10-16T07:45:11;7.88;;;5.32;;
46006;SDS011;31738;50.188;8.524;2022-10-16T07:47:43;13.40;;;6.22;;
46006;SDS011;31738;50.188;8.524;2022-10-16T07:50:12;10.57;;;5.97;;
46006;SDS011;31738;50.188;8.524;2022-10-16T07:52:41;9.23;;;5.57;;
46006;SDS011;31738;50.188;8.524;2022-10-16T07:55:09;10.05;;;5.78;;
46006;SDS011;31738;50.188;8.524;2022-10-16T07:57:40;9.23;;;5.47;;
46006;SDS011;31738;50.188;8.524;2022-10-16T08:00:06;8.50;;;5.43;;
46006;SDS011;31738;50.188;8.524;2022-10-16T08:02:37;11.50;;;5.43;;
46006;SDS011;31738;50.188;8.524;2022-10-16T08:05:03;10.60;;;5.80;;
46006;SDS011;31738;50.188;8.524;2022-10-16T08:07:36;9.55;;;5.20;;
46006;SDS011;31738;50.188;8.524;2022-10-16T08:10:11;9.40;;;5.90;;
46006;SDS011;31738;50.188;8.524;2022-10-16T08:12:44;8.52;;;6.30;;
46006;SDS011;31738;50.188;8.524;2022-10-16T08:15:15;7.68;;;5.90;;
46006;SDS011;31738;50.188;8.524;2022-10-16T08:18:09;10.02;;;6.35;;
46006;SDS011;31738;50.188;8.524;2022-10-16T08:20:39;9.25;;;6.35;;
46006;SDS011;31738;50.188;8.524;2022-10-16T08:23:20;8.65;;;6.40;;
46006;SDS011;31738;50.188;8.524;2022-10-16T08:25:46;8.52;;;6.13;;
46006;SDS011;31738;50.188;8.524;2022-10-16T08:28:14;11.27;;;6.82;;
46006;SDS011;31738;50.188;8.524;2022-10-16T08:30:42;10.65;;;7.45;;
46006;SDS011;31738;50.188;8.524;2022-10-16T08:33:08;12.57;;;6.30;;
46006;SDS011;31738;50.188;8.524;2022-10-16T08:35:36;12.32;;;6.78;;
46006;SDS011;31738;50.188;8.524;2022-10-16T08:38:05;9.77;;;5.90;;
46006;SDS011;31738;50.188;8.524;2022-10-16T08:40:36;11.55;;;6.63;;
46006;SDS011;31738;50.188;8.524;2022-10-16T08:51:20;7.82;;;5.90;;
46006;SDS011;31738;50.188;8.524;2022-10-16T08:53:58;7.25;;;5.60;;
46006;SDS011;31738;50.188;8.524;2022-10-16T08:56:27;9.82;;;5.55;;
46006;SDS011;31738;50.188;8.524;2022-10-16T08:59:00;11.00;;;5.65;;
46006;SDS011;31738;50.188;8.524;2022-10-16T09:01:46;7.95;;;5.43;;
46006;SDS011;31738;50.188;8.524;2022-10-16T09:18:48;12.18;;;6.10;;
46006;SDS011;31738;50.188;8.524;2022-10-16T09:21:43;10.75;;;6.53;;
46006;SDS011;31738;50.188;8.524;2022-10-16T09:24:16;9.27;;;6.13;;
46006;SDS011;31738;50.188;8.524;2022-10-16T09:26:46;8.90;;;5.93;;
46006;SDS011;31738;50.188;8.524;2022-10-16T09:29:18;12.00;;;6.85;;
46006;SDS011;31738;50.188;8.524;2022-10-16T09:31:55;11.65;;;6.63;;
46006;SDS011;31738;50.188;8.524;2022-10-16T09:34:40;9.20;;;6.45;;
46006;SDS011;31738;50.188;8.524;2022-10-16T09:37:14;11.27;;;7.25;;
46006;SDS011;31738;50.188;8.524;2022-10-16T09:39:49;11.73;;;6.57;;
46006;SDS011;31738;50.188;8.524;2022-10-16T09:42:27;9.95;;;6.35;;
46006;SDS011;31738;50.188;8.524;2022-10-16T09:45:03;9.88;;;5.93;;
46006;SDS011;31738;50.188;8.524;2022-10-16T09:47:32;14.15;;;6.78;;
46006;SDS011;31738;50.188;8.524;2022-10-16T09:50:18;9.25;;;6.53;;
46006;SDS011;31738;50.188;8.524;2022-10-16T09:53:07;11.43;;;6.47;;
46006;SDS011;31738;50.188;8.524;2022-10-16T09:55:57;13.35;;;6.38;;
46006;SDS011;31738;50.188;8.524;2022-10-16T09:58:27;11.25;;;6.30;;
46006;SDS011;31738;50.188;8.524;2022-10-16T10:01:05;15.48;;;7.18;;
46006;SDS011;31738;50.188;8.524;2022-10-16T10:03:45;9.40;;;5.82;;
46006;SDS011;31738;50.188;8.524;2022-10-16T10:14:30;12.50;;;5.28;;
46006;SDS011;31738;50.188;8.524;2022-10-16T10:22:40;10.27;;;5.68;;
46006;SDS011;31738;50.188;8.524;2022-10-16T10:30:57;11.27;;;5.75;;
46006;SDS011;31738;50.188;8.524;2022-10-16T10:39:23;6.60;;;5.13;;
46006;SDS011;31738;50.188;8.524;2022-10-16T10:41:59;8.25;;;5.50;;
46006;SDS011;31738;50.188;8.524;2022-10-16T10:44:55;8.57;;;5.45;;
46006;SDS011;31738;50.188;8.524;2022-10-16T10:50:45;7.90;;;5.78;;
46006;SDS011;31738;50.188;8.524;2022-10-16T10:56:57;10.80;;;6.03;;
46006;SDS011;31738;50.188;8.524;2022-10-16T11:02:40;10.75;;;6.78;;
46006;SDS011;31738;50.188;8.524;2022-10-16T11:08:49;10.52;;;6.50;;
46006;SDS011;31738;50.188;8.524;2022-10-16T11:11:26;10.88;;;6.32;;
46006;SDS011;31738;50.188;8.524;2022-10-16T11:13:59;10.50;;;6.18;;
46006;SDS011;31738;50.188;8.524;2022-10-16T11:16:38;11.48;;;7.07;;
46006;SDS011;31738;50.188;8.524;2022-10-16T11:21:48;10.88;;;7.32;;
46006;SDS011;31738;50.188;8.524;2022-10-16T11:24:23;7.70;;;5.90;;
46006;SDS011;31738;50.188;8.524;2022-10-16T11:27:14;12.63;;;7.07;;
46006;SDS011;31738;50.188;8.524;2022-10-16T11:29:59;16.02;;;7.13;;
46006;SDS011;31738;50.188;8.524;2022-10-16T11:32:34;9.25;;;6.75;;
46006;SDS011;31738;50.188;8.524;2022-10-16T11:38:26;9.85;;;6.35;;
46006;SDS011;31738;50.188;8.524;2022-10-16T11:41:12;11.07;;;6.32;;
46006;SDS011;31738;50.188;8.524;2022-10-16T11:47:05;10.63;;;5.03;;
46006;SDS011;31738;50.188;8.524;2022-10-16T11:49:37;7.75;;;4.50;;
46006;SDS011;31738;50.188;8.524;2022-10-16T11:52:23;8.60;;;4.85;;
46006;SDS011;31738;50.188;8.524;2022-10-16T11:57:43;8.15;;;5.50;;
46006;SDS011;31738;50.188;8.524;2022-10-16T12:00:24;8.50;;;5.25;;
46006;SDS011;31738;50.188;8.524;2022-10-16T12:03:17;8.32;;;4.90;;
46006;SDS011;31738;50.188;8.524;2022-10-16T12:06:12;8.38;;;5.07;;
46006;SDS011;31738;50.188;8.524;2022-10-16T12:08:42;8.02;;;5.70;;
46006;SDS011;31738;50.188;8.524;2022-10-16T12:11:23;8.65;;;5.18;;
46006;SDS011;31738;50.188;8.524;2022-10-16T12:13:52;9.07;;;5.75;;
46006;SDS011;31738;50.188;8.524;2022-10-16T12:17:03;11.23;;;6.03;;
46006;SDS011;31738;50.188;8.524;2022-10-16T12:20:18;8.18;;;5.43;;
46006;SDS011;31738;50.188;8.524;2022-10-16T12:22:50;8.45;;;5.68;;
46006;SDS011;31738;50.188;8.524;2022-10-16T12:25:30;10.30;;;6.10;;
46006;SDS011;31738;50.188;8.524;2022-10-16T12:28:40;8.52;;;5.15;;
46006;SDS011;31738;50.188;8.524;2022-10-16T12:31:02;8.98;;;5.80;;
46006;SDS011;31738;50.188;8.524;2022-10-16T12:36:10;10.00;;;6.13;;
46006;SDS011;31738;50.188;8.524;2022-10-16T12:38:58;11.80;;;6.15;;
46006;SDS011;31738;50.188;8.524;2022-10-16T12:41:29;8.25;;;5.53;;
46006;SDS011;31738;50.188;8.524;2022-10-16T12:44:21;9.23;;;5.93;;
46006;SDS011;31738;50.188;8.524;2022-10-16T12:46:51;13.52;;;5.93;;
46006;SDS011;31738;50.188;8.524;2022-10-16T12:49:21;7.85;;;5.60;;
46006;SDS011;31738;50.188;8.524;2022-10-16T12:52:22;9.45;;;5.57;;
46006;SDS011;31738;50.188;8.524;2022-10-16T12:55:15;6.03;;;4.97;;
46006;SDS011;31738;50.188;8.524;2022-10-16T13:00:42;5.72;;;4.75;;
46006;SDS011;31738;50.188;8.524;2022-10-16T13:06:40;6.90;;;4.45;;
46006;SDS011;31738;50.188;8.524;2022-10-16T13:09:27;5.25;;;4.22;;
46006;SDS011;31738;50.188;8.524;2022-10-16T13:12:27;8.45;;;4.03;;
46006;SDS011;31738;50.188;8.524;2022-10-16T13:27:06;8.73;;;3.60;;
46006;SDS011;31738;50.188;8.524;2022-10-16T13:29:55;6.65;;;3.33;;
46006;SDS011;31738;50.188;8.524;2022-10-16T13:32:31;4.93;;;3.30;;
46006;SDS011;31738;50.188;8.524;2022-10-16T13:35:15;6.47;;;3.03;;
46006;SDS011;31738;50.188;8.524;2022-10-16T13:37:45;4.45;;;2.80;;
46006;SDS011;31738;50.188;8.524;2022-10-16T13:40:18;6.72;;;3.13;;
46006;SDS011;31738;50.188;8.524;2022-10-16T13:42:50;4.38;;;2.83;;
46006;SDS011;31738;50.188;8.524;2022-10-16T13:45:25;3.25;;;2.63;;
46006;SDS011;31738;50.188;8.524;2022-10-16T13:48:18;8.18;;;3.10;;
46006;SDS011;31738;50.188;8.524;2022-10-16T13:51:00;4.32;;;2.70;;
46006;SDS011;31738;50.188;8.524;2022-10-16T13:53:42;3.53;;;2.95;;
46006;SDS011;31738;50.188;8.524;2022-10-16T13:56:20;4.65;;;2.97;;
46006;SDS011;31738;50.188;8.524;2022-10-16T13:59:20;6.20;;;3.70;;
46006;SDS011;31738;50.188;8.524;2022-10-16T14:01:52;3.90;;;2.95;;
46006;SDS011;31738;50.188;8.524;2022-10-16T14:04:37;4.53;;;3.13;;
46006;SDS011;31738;50.188;8.524;2022-10-16T14:07:16;4.15;;;2.80;;
46006;SDS011;31738;50.188;8.524;2022-10-16T14:09:49;7.97;;;2.90;;
46006;SDS011;31738;50.188;8.524;2022-10-16T14:12:28;5.25;;;2.75;;
46006;SDS011;31738;50.188;8.524;2022-10-16T14:15:02;4.53;;;2.70;;
46006;SDS011;31738;50.188;8.524;2022-10-16T14:17:33;5.70;;;2.97;;
46006;SDS011;31738;50.188;8.524;2022-10-16T14:20:14;3.40;;;3.00;;
46006;SDS011;31738;50.188;8.524;2022-10-16T14:22:46;4.80;;;3.03;;
46006;SDS011;31738;50.188;8.524;2022-10-16T14:25:29;8.35;;;3.22;;
46006;SDS011;31738;50.188;8.524;2022-10-16T14:30:48;4.53;;;3.20;;
46006;SDS011;31738;50.188;8.524;2022-10-16T14:36:14;5.07;;;3.25;;
46006;SDS011;31738;50.188;8.524;2022-10-16T14:38:56;4.70;;;3.45;;
46006;SDS011;31738;50.188;8.524;2022-10-16T14:41:33;5.55;;;3.28;;
46006;SDS011;31738;50.188;8.524;2022-10-16T14:44:34;5.57;;;3.47;;
46006;SDS011;31738;50.188;8.524;2022-10-16T14:47:13;5.28;;;3.47;;
46006;SDS011;31738;50.188;8.524;2022-10-16T14:49:54;3.92;;;3.08;;
46006;SDS011;31738;50.188;8.524;2022-10-16T14:52:27;6.78;;;3.50;;
46006;SDS011;31738;50.188;8.524;2022-10-16T14:54:53;6.45;;;3.00;;
46006;SDS011;31738;50.188;8.524;2022-10-16T14:57:26;15.23;;;4.07;;
46006;SDS011;31738;50.188;8.524;2022-10-16T15:00:15;12.40;;;3.58;;
46006;SDS011;31738;50.188;8.524;2022-10-16T15:02:50;5.00;;;3.80;;
46006;SDS011;31738;50.188;8.524;2022-10-16T15:05:26;8.65;;;3.67;;
46006;SDS011;31738;50.188;8.524;2022-10-16T15:08:03;5.35;;;4.15;;
46006;SDS011;31738;50.188;8.524;2022-10-16T15:10:42;5.00;;;3.58;;
46006;SDS011;31738;50.188;8.524;2022-10-16T15:13:17;5.78;;;3.70;;
46006;SDS011;31738;50.188;8.524;2022-10-16T15:15:48;7.68;;;3.17;;
46006;SDS011;31738;50.188;8.524;2022-10-16T15:18:23;6.30;;;3.53;;
46006;SDS011;31738;50.188;8.524;2022-10-16T15:21:01;7.65;;;3.70;;
46006;SDS011;31738;50.188;8.524;2022-10-16T15:23:29;5.30;;;3.72;;
46006;SDS011;31738;50.188;8.524;2022-10-16T15:25:58;6.97;;;3.53;;
46006;SDS011;31738;50.188;8.524;2022-10-16T15:28:27;8.52;;;4.00;;
46006;SDS011;31738;50.188;8.524;2022-10-16T15:31:08;5.20;;;3.67;;
46006;SDS011;31738;50.188;8.524;2022-10-16T15:33:34;6.40;;;3.50;;
46006;SDS011;31738;50.188;8.524;2022-10-16T15:36:03;5.38;;;3.40;;
46006;SDS011;31738;50.188;8.524;2022-10-16T15:38:55;6.47;;;3.42;;
46006;SDS011;31738;50.188;8.524;2022-10-16T15:41:21;6.70;;;3.67;;
46006;SDS011;31738;50.188;8.524;2022-10-16T15:43:48;5.13;;;3.78;;
46006;SDS011;31738;50.188;8.524;2022-10-16T15:46:20;8.63;;;4.07;;
46006;SDS011;31738;50.188;8.524;2022-10-16T15:48:51;11.75;;;3.88;;
46006;SDS011;31738;50.188;8.524;2022-10-16T15:51:21;6.00;;;3.83;;
46006;SDS011;31738;50.188;8.524;2022-10-16T15:53:47;3.95;;;3.40;;
46006;SDS011;31738;50.188;8.524;2022-10-16T15:56:18;5.72;;;4.18;;
46006;SDS011;31738;50.188;8.524;2022-10-16T15:58:47;7.70;;;4.05;;
46006;SDS011;31738;50.188;8.524;2022-10-16T16:01:13;4.97;;;3.60;;
46006;SDS011;31738;50.188;8.524;2022-10-16T16:03:43;5.32;;;3.78;;
46006;SDS011;31738;50.188;8.524;2022-10-16T16:06:30;6.60;;;3.92;;
46006;SDS011;31738;50.188;8.524;2022-10-16T16:09:02;5.22;;;3.65;;
46006;SDS011;31738;50.188;8.524;2022-10-16T16:11:34;5.13;;;3.75;;
46006;SDS011;31738;50.188;8.524;2022-10-16T16:14:08;7.72;;;4.13;;
46006;SDS011;31738;50.188;8.524;2022-10-16T16:16:40;5.25;;;3.83;;
46006;SDS011;31738;50.188;8.524;2022-10-16T16:19:15;5.60;;;3.83;;
46006;SDS011;31738;50.188;8.524;2022-10-16T16:21:45;10.60;;;4.00;;
46006;SDS011;31738;50.188;8.524;2022-10-16T16:24:24;6.07;;;3.70;;
46006;SDS011;31738;50.188;8.524;2022-10-16T16:27:02;6.05;;;3.05;;
46006;SDS011;31738;50.188;8.524;2022-10-16T16:29:51;6.95;;;3.83;;
46006;SDS011;31738;50.188;8.524;2022-10-16T16:32:22;4.53;;;3.53;;
46006;SDS011;31738;50.188;8.524;2022-10-16T16:34:54;6.72;;;4.15;;
46006;SDS011;31738;50.188;8.524;2022-10-16T16:37:36;8.07;;;3.70;;
46006;SDS011;31738;50.188;8.524;2022-10-16T16:43:31;15.73;;;3.90;;
46006;SDS011;31738;50.188;8.524;2022-10-16T16:46:11;6.35;;;3.35;;
46006;SDS011;31738;50.188;8.524;2022-10-16T16:49:13;7.50;;;3.15;;
46006;SDS011;31738;50.188;8.524;2022-10-16T16:51:54;6.05;;;3.28;;
46006;SDS011;31738;50.188;8.524;2022-10-16T16:54:50;6.63;;;3.17;;
46006;SDS011;31738;50.188;8.524;2022-10-16T16:57:20;6.00;;;3.58;;
46006;SDS011;31738;50.188;8.524;2022-10-16T16:59:55;9.00;;;3.60;;
46006;SDS011;31738;50.188;8.524;2022-10-16T17:02:29;5.18;;;3.80;;
46006;SDS011;31738;50.188;8.524;2022-10-16T17:04:57;5.05;;;3.58;;
46006;SDS011;31738;50.188;8.524;2022-10-16T17:07:30;4.22;;;3.20;;
46006;SDS011;31738;50.188;8.524;2022-10-16T17:10:02;8.07;;;3.33;;
46006;SDS011;31738;50.188;8.524;2022-10-16T17:12:28;6.28;;;3.42;;
46006;SDS011;31738;50.188;8.524;2022-10-16T17:15:01;5.53;;;3.47;;
46006;SDS011;31738;50.188;8.524;2022-10-16T17:17:27;7.85;;;3.72;;
46006;SDS011;31738;50.188;8.524;2022-10-16T17:19:52;10.38;;;3.60;;
46006;SDS011;31738;50.188;8.524;2022-10-16T17:22:18;5.82;;;3.80;;
46006;SDS011;31738;50.188;8.524;2022-10-16T17:24:50;6.85;;;4.28;;
46006;SDS011;31738;50.188;8.524;2022-10-16T17:27:26;5.47;;;3.67;;